createdAt,value
2022-10-07T00:00:34.000Z,3.00
2022-10-07T00:03:20.839Z,2.53
2022-10-07T00:06:08.799Z,3.08
2022-10-07T00:08:55.740Z,3.58
2022-10-07T00:11:43.852Z,2.67
2022-10-07T00:14:34.857Z,3.22
2022-10-07T00:17:24.268Z,3.13
2022-10-07T00:20:13.515Z,2.35
2022-10-07T00:23:02.798Z,2.55
2022-10-07T00:25:52.867Z,2.50
2022-10-07T00:28:42.600Z,2.00
2022-10-07T00:31:33.469Z,2.72
2022-10-07T00:34:22.633Z,2.67
2022-10-07T00:37:12.199Z,3.00
2022-10-07T00:40:01.889Z,2.25
2022-10-07T00:42:51.156Z,2.63
2022-10-07T00:45:40.896Z,2.72
2022-10-07T00:48:33.907Z,3.00
2022-10-07T00:51:24.478Z,2.80
2022-10-07T00:54:15.077Z,5.05
2022-10-07T00:57:04.435Z,3.08
2022-10-07T00:59:56.388Z,3.22
2022-10-07T01:02:45.904Z,3.17
2022-10-07T01:05:37.650Z,3.05
2022-10-07T01:08:27.206Z,3.20
2022-10-07T01:11:21.211Z,3.17
2022-10-07T01:14:13.018Z,2.80
2022-10-07T01:17:03.736Z,2.90
2022-10-07T01:20:02.702Z,2.15
2022-10-07T01:22:56.994Z,2.75
2022-10-07T01:28:35.154Z,2.60
2022-10-07T01:31:25.946Z,2.65
2022-10-07T01:34:14.026Z,2.33
2022-10-07T01:37:02.905Z,2.50
2022-10-07T01:39:53.837Z,3.20
2022-10-07T01:42:41.472Z,2.83
2022-10-07T01:45:31.112Z,2.40
2022-10-07T01:48:18.179Z,2.83
2022-10-07T01:51:07.998Z,2.53
2022-10-07T01:53:58.802Z,3.15
2022-10-07T01:56:51.018Z,2.38
2022-10-07T01:59:47.047Z,2.25
2022-10-07T02:02:41.218Z,2.50
2022-10-07T02:05:34.340Z,2.85
2022-10-07T02:08:24.931Z,2.30
2022-10-07T02:11:14.073Z,2.50
2022-10-07T02:14:04.044Z,3.58
2022-10-07T02:16:52.697Z,2.90
2022-10-07T02:19:43.918Z,2.60
2022-10-07T02:22:32.522Z,2.45
2022-10-07T02:25:20.886Z,2.65
2022-10-07T02:28:08.460Z,2.42
2022-10-07T02:30:58.473Z,2.40
2022-10-07T02:33:47.202Z,2.60
2022-10-07T02:36:36.951Z,2.92
2022-10-07T02:39:24.072Z,2.80
2022-10-07T02:42:13.867Z,3.03
2022-10-07T02:45:04.315Z,2.50
2022-10-07T02:47:54.211Z,2.80
2022-10-07T02:50:42.397Z,2.55
2022-10-07T02:53:32.168Z,2.50
2022-10-07T02:56:21.815Z,2.30
2022-10-07T02:59:11.333Z,2.45
2022-10-07T03:01:59.821Z,2.50
2022-10-07T03:04:47.602Z,2.33
2022-10-07T03:07:35.285Z,2.30
2022-10-07T03:10:24.076Z,2.22
2022-10-07T03:13:11.289Z,2.55
2022-10-07T03:15:58.277Z,2.63
2022-10-07T03:18:46.254Z,2.20
2022-10-07T03:21:34.377Z,2.03
2022-10-07T03:24:21.263Z,2.45
2022-10-07T03:27:09.630Z,2.97
2022-10-07T03:29:58.532Z,2.00
2022-10-07T03:32:45.723Z,1.80
2022-10-07T03:35:32.690Z,2.35
2022-10-07T03:38:19.844Z,2.97
2022-10-07T03:41:06.789Z,2.22
2022-10-07T03:43:57.490Z,2.00
2022-10-07T03:46:44.472Z,2.35
2022-10-07T03:49:31.759Z,2.45
2022-10-07T03:52:18.816Z,2.25
2022-10-07T03:55:06.136Z,2.10
2022-10-07T03:57:58.390Z,2.78
2022-10-07T04:00:48.494Z,2.40
2022-10-07T04:03:35.546Z,1.90
2022-10-07T04:06:23.071Z,2.70
2022-10-07T04:09:09.880Z,2.70
2022-10-07T04:11:56.659Z,2.28
2022-10-07T04:14:43.666Z,2.08
2022-10-07T04:17:32.017Z,1.95
2022-10-07T04:20:19.026Z,1.80
2022-10-07T04:23:06.261Z,1.88
2022-10-07T04:25:53.374Z,2.08
2022-10-07T04:28:40.509Z,2.33
2022-10-07T04:31:27.570Z,2.00
2022-10-07T04:34:16.158Z,2.38
2022-10-07T04:37:03.070Z,1.92
2022-10-07T04:40:00.609Z,2.00
2022-10-07T04:43:06.334Z,2.20
2022-10-07T04:45:54.816Z,2.45
2022-10-07T04:48:43.970Z,2.85
2022-10-07T04:51:32.367Z,2.08
2022-10-07T04:54:19.651Z,2.22
2022-10-07T04:57:06.948Z,2.95
2022-10-07T04:59:53.605Z,2.25
2022-10-07T05:02:40.451Z,2.50
2022-10-07T05:05:27.909Z,2.28
2022-10-07T05:08:16.875Z,2.13
2022-10-07T05:11:04.626Z,2.75
2022-10-07T05:13:52.505Z,2.85
2022-10-07T05:16:39.788Z,2.85
2022-10-07T05:19:26.993Z,2.65
2022-10-07T05:22:13.844Z,2.30
2022-10-07T05:25:02.095Z,2.35
2022-10-07T05:27:53.951Z,2.50
2022-10-07T05:30:41.254Z,2.72
2022-10-07T05:33:28.925Z,2.45
2022-10-07T05:36:16.369Z,2.47
2022-10-07T05:39:03.356Z,2.42
2022-10-07T05:41:51.543Z,2.65
2022-10-07T05:44:38.602Z,2.70
2022-10-07T05:47:25.865Z,2.42
2022-10-07T05:50:12.865Z,4.15
2022-10-07T05:52:59.819Z,2.67
2022-10-07T05:55:46.852Z,2.35
2022-10-07T05:58:36.229Z,2.85
2022-10-07T06:01:24.823Z,2.80
2022-10-07T06:04:12.373Z,2.95
2022-10-07T06:06:59.499Z,3.40
2022-10-07T06:10:04.043Z,4.90
2022-10-07T06:13:09.189Z,5.40
2022-10-07T06:16:01.050Z,3.85
2022-10-07T06:18:50.451Z,3.83
2022-10-07T06:21:37.134Z,3.60
2022-10-07T06:24:24.009Z,3.53
2022-10-07T06:27:11.261Z,3.42
2022-10-07T06:29:57.991Z,3.28
2022-10-07T06:32:46.218Z,3.25
2022-10-07T06:35:33.439Z,3.30
2022-10-07T06:38:20.382Z,2.75
2022-10-07T06:41:07.270Z,2.90
2022-10-07T06:43:56.218Z,3.05
2022-10-07T06:46:43.055Z,2.83
2022-10-07T06:49:31.364Z,2.85
2022-10-07T06:52:18.402Z,2.38
2022-10-07T06:55:05.606Z,3.28
2022-10-07T06:57:53.026Z,2.53
2022-10-07T07:00:40.713Z,2.63
2022-10-07T07:03:28.478Z,2.85
2022-10-07T07:06:18.708Z,4.05
2022-10-07T07:09:06.469Z,2.90
2022-10-07T07:11:56.685Z,2.78
2022-10-07T07:14:45.082Z,2.88
2022-10-07T07:17:32.607Z,2.30
2022-10-07T07:20:19.397Z,2.85
2022-10-07T07:23:10.370Z,2.28
2022-10-07T07:25:57.323Z,2.92
2022-10-07T07:28:44.269Z,2.47
2022-10-07T07:31:32.779Z,2.95
2022-10-07T07:34:19.528Z,2.25
2022-10-07T07:37:06.364Z,2.53
2022-10-07T07:39:54.629Z,2.70
2022-10-07T07:42:41.651Z,2.35
2022-10-07T07:45:29.203Z,2.83
2022-10-07T07:48:16.202Z,2.50
2022-10-07T07:51:06.250Z,2.53
2022-10-07T07:53:53.261Z,1.92
2022-10-07T07:56:42.239Z,2.03
2022-10-07T07:59:29.098Z,2.33
2022-10-07T08:02:16.127Z,2.40
2022-10-07T08:05:03.278Z,2.22
2022-10-07T08:07:50.332Z,2.00
2022-10-07T08:10:37.770Z,2.40
2022-10-07T08:13:27.045Z,2.10
2022-10-07T08:16:14.870Z,2.83
2022-10-07T08:19:02.219Z,2.28
2022-10-07T08:21:49.207Z,2.10
2022-10-07T08:24:36.572Z,2.17
2022-10-07T08:27:23.576Z,2.17
2022-10-07T08:30:12.546Z,2.22
2022-10-07T08:33:01.552Z,2.65
2022-10-07T08:35:50.292Z,2.28
2022-10-07T08:38:38.308Z,2.88
2022-10-07T08:41:32.999Z,2.28
2022-10-07T08:44:22.772Z,2.13
2022-10-07T08:47:18.774Z,2.55
2022-10-07T08:50:10.881Z,1.85
2022-10-07T08:53:03.326Z,1.95
2022-10-07T08:55:52.760Z,2.10
2022-10-07T08:58:45.921Z,1.90
2022-10-07T09:01:38.201Z,2.33
2022-10-07T09:04:34.199Z,2.33
2022-10-07T09:07:27.163Z,2.17
2022-10-07T09:10:26.495Z,2.03
2022-10-07T09:13:16.049Z,1.80
2022-10-07T09:16:05.259Z,1.80
2022-10-07T09:18:53.977Z,1.70
2022-10-07T09:21:43.729Z,1.80
2022-10-07T09:24:31.677Z,1.77
2022-10-07T09:27:20.099Z,2.25
2022-10-07T09:30:07.625Z,1.83
2022-10-07T09:32:55.486Z,1.50
2022-10-07T09:35:42.797Z,1.92
2022-10-07T09:38:32.506Z,1.67
2022-10-07T09:41:20.844Z,1.40
2022-10-07T09:44:12.393Z,2.42
2022-10-07T09:46:59.607Z,1.80
2022-10-07T09:49:49.615Z,1.90
2022-10-07T09:52:36.754Z,1.90
2022-10-07T09:55:34.763Z,2.10
2022-10-07T09:58:25.419Z,1.67
2022-10-07T10:01:12.592Z,2.22
2022-10-07T10:04:00.315Z,1.65
2022-10-07T10:06:48.394Z,1.95
2022-10-07T10:09:36.046Z,2.35
2022-10-07T10:12:25.227Z,2.00
2022-10-07T10:15:24.678Z,2.10
2022-10-07T10:18:30.650Z,1.92
2022-10-07T10:21:22.402Z,1.63
2022-10-07T10:24:12.609Z,2.13
2022-10-07T10:27:01.569Z,2.17
2022-10-07T10:29:56.005Z,2.13
2022-10-07T10:32:51.361Z,1.88
2022-10-07T10:35:41.810Z,1.98
2022-10-07T10:38:33.175Z,1.83
2022-10-07T10:41:25.188Z,1.83
2022-10-07T10:44:17.066Z,1.88
2022-10-07T10:47:12.983Z,2.17
2022-10-07T10:50:02.855Z,2.38
2022-10-07T10:52:57.642Z,2.17
2022-10-07T10:55:56.767Z,1.77
2022-10-07T10:58:49.183Z,1.58
2022-10-07T11:01:37.729Z,1.40
2022-10-07T11:04:34.275Z,1.55
2022-10-07T11:07:22.831Z,2.00
2022-10-07T11:10:19.036Z,1.85
2022-10-07T11:13:16.128Z,2.30
2022-10-07T11:16:07.690Z,1.67
2022-10-07T11:18:57.069Z,1.90
2022-10-07T11:21:47.131Z,1.83
2022-10-07T11:24:35.666Z,1.73
2022-10-07T11:27:24.912Z,1.70
2022-10-07T11:30:17.863Z,1.58
2022-10-07T11:33:07.366Z,1.55
2022-10-07T11:35:56.536Z,1.42
2022-10-07T11:38:45.527Z,1.88
2022-10-07T11:41:34.219Z,1.98
2022-10-07T11:44:23.766Z,1.63
2022-10-07T11:47:12.904Z,2.00
2022-10-07T11:50:03.475Z,1.65
2022-10-07T11:52:53.288Z,1.85
2022-10-07T11:55:44.658Z,1.73
2022-10-07T11:58:34.356Z,1.60
2022-10-07T12:01:31.907Z,2.17
2022-10-07T12:04:25.579Z,1.83
2022-10-07T12:07:31.192Z,1.70
2022-10-07T12:10:23.272Z,2.00
2022-10-07T12:13:25.338Z,2.10
2022-10-07T12:16:31.481Z,1.70
2022-10-07T12:19:23.856Z,2.00
2022-10-07T12:22:19.249Z,1.77
2022-10-07T12:25:32.211Z,1.95
2022-10-07T12:28:23.853Z,1.70
2022-10-07T12:31:25.586Z,1.55
2022-10-07T12:34:13.344Z,1.67
2022-10-07T12:37:15.181Z,1.73
2022-10-07T12:40:07.019Z,2.33
2022-10-07T12:42:56.743Z,1.65
2022-10-07T12:45:44.381Z,1.48
2022-10-07T12:48:34.596Z,2.42
2022-10-07T12:51:26.303Z,2.42
2022-10-07T12:54:16.186Z,1.60
2022-10-07T12:57:11.412Z,1.88
2022-10-07T13:00:02.021Z,2.17
2022-10-07T13:03:09.734Z,1.90
2022-10-07T13:06:15.414Z,1.80
2022-10-07T13:09:19.710Z,1.63
2022-10-07T13:12:11.474Z,1.75
2022-10-07T13:15:01.867Z,1.83
2022-10-07T13:17:51.669Z,3.13
2022-10-07T13:20:42.906Z,2.45
2022-10-07T13:23:31.497Z,2.10
2022-10-07T13:26:18.331Z,2.00
2022-10-07T13:29:07.279Z,2.35
2022-10-07T13:32:04.796Z,1.80
2022-10-07T13:34:53.231Z,1.95
2022-10-07T13:37:46.226Z,2.58
2022-10-07T13:40:35.600Z,2.47
2022-10-07T13:43:25.659Z,2.10
2022-10-07T13:46:15.029Z,2.00
2022-10-07T13:49:02.405Z,2.00
2022-10-07T13:51:54.067Z,1.90
2022-10-07T13:54:50.423Z,2.08
2022-10-07T13:57:43.925Z,2.33
2022-10-07T14:00:31.493Z,2.13
2022-10-07T14:03:19.899Z,1.98
2022-10-07T14:06:09.285Z,2.22
2022-10-07T14:08:56.131Z,1.90
2022-10-07T14:11:43.619Z,2.00
2022-10-07T14:14:34.585Z,2.15
2022-10-07T14:17:27.432Z,1.92
2022-10-07T14:20:21.409Z,1.83
2022-10-07T14:23:18.037Z,1.88
2022-10-07T14:26:05.591Z,2.00
2022-10-07T14:28:52.553Z,2.00
2022-10-07T14:31:56.886Z,2.22
2022-10-07T14:35:02.132Z,1.92
2022-10-07T14:37:50.774Z,1.73
2022-10-07T14:40:37.780Z,2.47
2022-10-07T14:43:24.686Z,2.30
2022-10-07T14:46:12.366Z,2.45
2022-10-07T14:48:59.342Z,1.63
2022-10-07T14:51:47.213Z,2.28
2022-10-07T14:54:35.923Z,2.22
2022-10-07T14:57:22.819Z,2.17
2022-10-07T15:00:13.166Z,1.92
2022-10-07T15:03:02.738Z,2.17
2022-10-07T15:05:50.202Z,2.38
2022-10-07T15:08:37.114Z,2.28
2022-10-07T15:11:25.367Z,2.08
2022-10-07T15:14:12.387Z,2.22
2022-10-07T15:16:59.705Z,2.47
2022-10-07T15:19:47.123Z,2.17
2022-10-07T15:22:34.255Z,2.50
2022-10-07T15:25:21.540Z,2.15
2022-10-07T15:28:10.426Z,2.58
2022-10-07T15:31:02.316Z,2.30
2022-10-07T15:33:49.209Z,2.53
2022-10-07T15:36:36.181Z,2.45
2022-10-07T15:39:23.547Z,2.20
2022-10-07T15:42:10.454Z,2.67
2022-10-07T15:44:58.644Z,3.10
2022-10-07T15:47:45.693Z,3.05
2022-10-07T15:50:32.844Z,3.05
2022-10-07T15:53:20.318Z,2.58
2022-10-07T15:56:10.086Z,1.77
2022-10-07T15:58:58.680Z,2.08
2022-10-07T16:01:49.652Z,2.80
2022-10-07T16:04:36.479Z,2.35
2022-10-07T16:07:23.991Z,1.70
2022-10-07T16:10:13.134Z,2.20
2022-10-07T16:13:00.068Z,2.15
2022-10-07T16:15:56.317Z,1.95
2022-10-07T16:18:45.287Z,1.90
2022-10-07T16:21:32.930Z,1.95
2022-10-07T16:24:20.922Z,1.92
2022-10-07T16:27:07.846Z,2.15
2022-10-07T16:30:12.482Z,2.60
2022-10-07T16:35:47.450Z,2.60
2022-10-07T16:38:34.284Z,2.10
2022-10-07T16:41:21.731Z,2.45
2022-10-07T16:44:09.175Z,2.00
2022-10-07T16:46:58.084Z,2.20
2022-10-07T16:49:46.174Z,2.33
2022-10-07T16:52:35.035Z,2.50
2022-10-07T16:55:22.028Z,2.88
2022-10-07T16:58:09.034Z,3.00
2022-10-07T17:01:00.825Z,2.88
2022-10-07T17:03:49.841Z,3.15
2022-10-07T17:06:37.250Z,2.85
2022-10-07T17:09:25.774Z,2.67
2022-10-07T17:12:12.849Z,3.05
2022-10-07T17:15:03.176Z,3.55
2022-10-07T17:17:53.211Z,2.88
2022-10-07T17:20:41.095Z,2.92
2022-10-07T17:23:28.152Z,3.17
2022-10-07T17:26:16.529Z,3.40
2022-10-07T17:29:04.097Z,3.70
2022-10-07T17:31:52.004Z,3.40
2022-10-07T17:34:43.142Z,3.75
2022-10-07T17:37:32.366Z,2.58
2022-10-07T17:40:20.135Z,3.03
2022-10-07T17:43:08.678Z,3.20
2022-10-07T17:45:55.573Z,3.63
2022-10-07T17:48:43.190Z,3.17
2022-10-07T17:51:31.282Z,3.33
2022-10-07T17:54:18.299Z,3.05
2022-10-07T17:57:05.232Z,3.13
2022-10-07T17:59:53.466Z,3.33
2022-10-07T18:02:40.692Z,3.38
2022-10-07T18:05:29.046Z,3.55
2022-10-07T18:08:17.398Z,3.25
2022-10-07T18:11:06.497Z,2.83
2022-10-07T18:14:10.960Z,3.55
2022-10-07T18:16:59.373Z,2.83
2022-10-07T18:19:46.654Z,3.78
2022-10-07T18:22:34.582Z,2.90
2022-10-07T18:25:21.587Z,2.55
2022-10-07T18:28:08.459Z,3.03
2022-10-07T18:30:55.346Z,3.25
2022-10-07T18:33:44.788Z,2.67
2022-10-07T18:36:32.130Z,2.83
2022-10-07T18:39:18.971Z,3.70
2022-10-07T18:42:05.823Z,2.50
2022-10-07T18:44:52.859Z,3.45
2022-10-07T18:47:39.664Z,2.95
2022-10-07T18:50:32.705Z,2.40
2022-10-07T18:53:20.488Z,2.85
2022-10-07T18:56:08.662Z,3.03
2022-10-07T18:58:56.479Z,2.50
2022-10-07T19:01:47.934Z,2.90
2022-10-07T19:04:38.182Z,3.10
2022-10-07T19:07:29.183Z,3.08
2022-10-07T19:10:16.362Z,2.53
2022-10-07T19:13:21.019Z,3.25
2022-10-07T19:16:09.169Z,3.00
2022-10-07T19:18:57.513Z,2.50
2022-10-07T19:21:46.569Z,2.42
2022-10-07T19:24:53.214Z,2.97
2022-10-07T19:27:40.956Z,2.50
2022-10-07T19:30:28.224Z,2.72
2022-10-07T19:33:16.040Z,2.67
2022-10-07T19:36:04.128Z,2.92
2022-10-07T19:38:53.473Z,2.70
2022-10-07T19:41:42.741Z,2.95
2022-10-07T19:44:29.508Z,2.83
2022-10-07T19:47:16.564Z,3.35
2022-10-07T19:50:03.901Z,2.60
2022-10-07T19:52:53.303Z,2.90
2022-10-07T19:55:44.892Z,2.95
2022-10-07T19:58:33.722Z,2.80
2022-10-07T20:01:21.828Z,2.78
2022-10-07T20:04:09.834Z,3.10
2022-10-07T20:06:59.097Z,3.05
2022-10-07T20:09:46.228Z,2.83
2022-10-07T20:12:33.771Z,3.20
2022-10-07T20:15:23.502Z,4.57
2022-10-07T20:18:10.602Z,3.42
2022-10-07T20:20:59.566Z,3.03
2022-10-07T20:23:48.088Z,2.67
2022-10-07T20:26:35.767Z,3.30
2022-10-07T20:29:25.157Z,2.92
2022-10-07T20:32:16.428Z,3.67
2022-10-07T20:35:10.899Z,2.85
2022-10-07T20:37:58.196Z,3.03
2022-10-07T20:41:02.534Z,3.30
2022-10-07T20:43:51.253Z,3.88
2022-10-07T20:46:38.777Z,3.47
2022-10-07T20:49:30.156Z,3.53
2022-10-07T20:52:18.541Z,3.95
2022-10-07T20:55:07.543Z,3.95
2022-10-07T20:57:54.941Z,3.70
2022-10-07T21:00:42.302Z,4.15
2022-10-07T21:03:30.197Z,3.95
2022-10-07T21:06:19.226Z,3.60
2022-10-07T21:09:06.672Z,3.70
2022-10-07T21:11:53.851Z,3.75
2022-10-07T21:14:42.950Z,3.45
2022-10-07T21:17:30.042Z,4.80
2022-10-07T21:20:16.858Z,4.30
2022-10-07T21:23:05.744Z,4.18
2022-10-07T21:25:53.824Z,4.25
2022-10-07T21:28:41.559Z,4.20
2022-10-07T21:31:29.718Z,4.45
2022-10-07T21:34:17.163Z,4.35
2022-10-07T21:37:04.850Z,4.50
2022-10-07T21:39:53.960Z,4.70
2022-10-07T21:42:41.379Z,4.80
2022-10-07T21:45:31.023Z,4.70
2022-10-07T21:48:17.814Z,4.95
2022-10-07T21:51:09.535Z,4.60
2022-10-07T21:53:58.345Z,4.78
2022-10-07T21:56:47.659Z,5.10
2022-10-07T21:59:35.591Z,4.55
2022-10-07T22:02:23.785Z,4.30
2022-10-07T22:05:11.606Z,4.60
2022-10-07T22:08:16.290Z,4.10
2022-10-07T22:11:03.284Z,3.97
2022-10-07T22:13:55.120Z,4.72
2022-10-07T22:16:42.065Z,4.07
2022-10-07T22:19:29.147Z,5.13
2022-10-07T22:22:16.062Z,5.18
2022-10-07T22:25:03.102Z,4.20
2022-10-07T22:27:50.631Z,4.22
2022-10-07T22:30:41.814Z,4.00
2022-10-07T22:33:28.726Z,3.92
2022-10-07T22:36:15.701Z,4.20
2022-10-07T22:39:03.534Z,4.50
2022-10-07T22:41:50.379Z,4.97
2022-10-07T22:44:37.355Z,3.47
2022-10-07T22:47:26.653Z,3.85
2022-10-07T22:50:16.690Z,4.00
2022-10-07T22:53:04.959Z,4.45
2022-10-07T22:55:54.312Z,4.85
2022-10-07T22:58:43.143Z,3.50
2022-10-07T23:01:31.669Z,3.50
2022-10-07T23:04:21.708Z,4.28
2022-10-07T23:07:09.073Z,3.55
2022-10-07T23:09:55.974Z,4.15
2022-10-07T23:12:43.600Z,3.83
2022-10-07T23:15:30.576Z,4.45
2022-10-07T23:18:17.332Z,3.97
2022-10-07T23:21:06.953Z,4.13
2022-10-07T23:24:02.896Z,3.50
2022-10-07T23:26:53.102Z,3.95
2022-10-07T23:29:40.152Z,3.63
2022-10-07T23:32:26.938Z,3.50
2022-10-07T23:35:13.794Z,3.50
2022-10-07T23:38:02.150Z,3.47
2022-10-07T23:40:49.422Z,4.28
2022-10-07T23:43:36.685Z,3.72
2022-10-07T23:46:24.360Z,3.40
2022-10-07T23:49:11.850Z,3.50
2022-10-07T23:51:59.266Z,3.50
2022-10-07T23:54:47.475Z,3.35
2022-10-07T23:57:34.163Z,3.20
